sensor_id;sensor_type;location;lat;lon;timestamp;P1;durP1;ratioP1;P2;durP2;ratioP2
73747;SDS011;62056;52.130;5.428;2022-12-10T00:02:05;50.78;;;20.13;;
73747;SDS011;62056;52.130;5.428;2022-12-10T00:04:31;60.78;;;25.10;;
73747;SDS011;62056;52.130;5.428;2022-12-10T00:06:58;38.35;;;17.02;;
73747;SDS011;62056;52.130;5.428;2022-12-10T00:09:25;47.05;;;19.63;;
73747;SDS011;62056;52.130;5.428;2022-12-10T00:11:52;61.37;;;27.53;;
73747;SDS011;62056;52.130;5.428;2022-12-10T00:14:18;46.90;;;18.77;;
73747;SDS011;62056;52.130;5.428;2022-12-10T00:16:45;51.95;;;22.38;;
73747;SDS011;62056;52.130;5.428;2022-12-10T00:19:12;41.58;;;18.60;;
73747;SDS011;62056;52.130;5.428;2022-12-10T00:21:39;34.60;;;15.35;;
73747;SDS011;62056;52.130;5.428;2022-12-10T00:24:06;42.37;;;17.53;;
73747;SDS011;62056;52.130;5.428;2022-12-10T00:26:36;39.75;;;17.13;;
73747;SDS011;62056;52.130;5.428;2022-12-10T00:29:04;34.75;;;16.38;;
73747;SDS011;62056;52.130;5.428;2022-12-10T00:31:33;43.08;;;17.73;;
73747;SDS011;62056;52.130;5.428;2022-12-10T00:34:02;40.80;;;17.60;;
73747;SDS011;62056;52.130;5.428;2022-12-10T00:36:32;34.97;;;14.90;;
73747;SDS011;62056;52.130;5.428;2022-12-10T00:39:01;33.00;;;14.38;;
73747;SDS011;62056;52.130;5.428;2022-12-10T00:41:28;39.13;;;17.55;;
73747;SDS011;62056;52.130;5.428;2022-12-10T00:43:55;34.50;;;16.60;;
73747;SDS011;62056;52.130;5.428;2022-12-10T00:46:22;38.35;;;16.23;;
73747;SDS011;62056;52.130;5.428;2022-12-10T00:48:49;29.20;;;13.03;;
73747;SDS011;62056;52.130;5.428;2022-12-10T00:51:18;29.20;;;13.65;;
73747;SDS011;62056;52.130;5.428;2022-12-10T00:53:47;33.40;;;13.93;;
73747;SDS011;62056;52.130;5.428;2022-12-10T00:56:17;40.58;;;17.42;;
73747;SDS011;62056;52.130;5.428;2022-12-10T00:58:46;41.17;;;18.00;;
73747;SDS011;62056;52.130;5.428;2022-12-10T01:01:18;30.77;;;14.27;;
73747;SDS011;62056;52.130;5.428;2022-12-10T01:03:48;39.28;;;15.60;;
73747;SDS011;62056;52.130;5.428;2022-12-10T01:06:18;47.58;;;19.02;;
73747;SDS011;62056;52.130;5.428;2022-12-10T01:08:48;47.30;;;18.25;;
73747;SDS011;62056;52.130;5.428;2022-12-10T01:11:18;44.47;;;18.15;;
73747;SDS011;62056;52.130;5.428;2022-12-10T01:13:45;39.50;;;15.97;;
73747;SDS011;62056;52.130;5.428;2022-12-10T01:16:13;42.65;;;19.40;;
73747;SDS011;62056;52.130;5.428;2022-12-10T01:18:42;55.33;;;19.42;;
73747;SDS011;62056;52.130;5.428;2022-12-10T01:21:11;38.35;;;17.98;;
73747;SDS011;62056;52.130;5.428;2022-12-10T01:23:40;73.05;;;24.50;;
73747;SDS011;62056;52.130;5.428;2022-12-10T01:26:11;67.10;;;22.47;;
73747;SDS011;62056;52.130;5.428;2022-12-10T01:28:52;62.25;;;23.95;;
73747;SDS011;62056;52.130;5.428;2022-12-10T01:31:24;64.45;;;23.67;;
73747;SDS011;62056;52.130;5.428;2022-12-10T01:34:03;93.13;;;32.40;;
73747;SDS011;62056;52.130;5.428;2022-12-10T01:36:40;63.25;;;24.63;;
73747;SDS011;62056;52.130;5.428;2022-12-10T01:39:15;79.43;;;22.77;;
73747;SDS011;62056;52.130;5.428;2022-12-10T01:42:05;58.28;;;21.27;;
73747;SDS011;62056;52.130;5.428;2022-12-10T01:47:04;65.53;;;27.13;;
73747;SDS011;62056;52.130;5.428;2022-12-10T01:49:53;85.72;;;31.80;;
73747;SDS011;62056;52.130;5.428;2022-12-10T01:52:41;79.50;;;33.60;;
73747;SDS011;62056;52.130;5.428;2022-12-10T01:58:33;56.22;;;21.85;;
73747;SDS011;62056;52.130;5.428;2022-12-10T02:01:10;51.03;;;20.92;;
73747;SDS011;62056;52.130;5.428;2022-12-10T02:08:09;38.43;;;16.37;;
73747;SDS011;62056;52.130;5.428;2022-12-10T02:16:49;42.05;;;16.98;;
73747;SDS011;62056;52.130;5.428;2022-12-10T02:22:15;43.93;;;16.77;;
73747;SDS011;62056;52.130;5.428;2022-12-10T02:24:45;41.85;;;16.40;;
73747;SDS011;62056;52.130;5.428;2022-12-10T02:30:35;47.92;;;18.80;;
73747;SDS011;62056;52.130;5.428;2022-12-10T02:33:05;44.55;;;16.60;;
73747;SDS011;62056;52.130;5.428;2022-12-10T02:35:36;43.50;;;15.50;;
73747;SDS011;62056;52.130;5.428;2022-12-10T02:38:13;36.30;;;14.85;;
73747;SDS011;62056;52.130;5.428;2022-12-10T02:40:45;72.75;;;22.30;;
73747;SDS011;62056;52.130;5.428;2022-12-10T02:43:43;49.13;;;18.20;;
73747;SDS011;62056;52.130;5.428;2022-12-10T02:46:13;64.75;;;20.25;;
73747;SDS011;62056;52.130;5.428;2022-12-10T02:48:42;47.77;;;17.10;;
73747;SDS011;62056;52.130;5.428;2022-12-10T02:51:18;51.10;;;15.10;;
73747;SDS011;62056;52.130;5.428;2022-12-10T02:54:01;32.50;;;13.30;;
73747;SDS011;62056;52.130;5.428;2022-12-10T02:57:03;38.58;;;12.13;;
73747;SDS011;62056;52.130;5.428;2022-12-10T03:07:57;64.53;;;21.95;;
73747;SDS011;62056;52.130;5.428;2022-12-10T03:10:39;81.97;;;27.20;;
73747;SDS011;62056;52.130;5.428;2022-12-10T03:13:39;74.05;;;24.38;;
73747;SDS011;62056;52.130;5.428;2022-12-10T03:17:06;41.10;;;16.23;;
73747;SDS011;62056;52.130;5.428;2022-12-10T03:19:37;60.00;;;15.32;;
73747;SDS011;62056;52.130;5.428;2022-12-10T03:22:09;53.47;;;17.95;;
73747;SDS011;62056;52.130;5.428;2022-12-10T03:24:38;44.08;;;17.42;;
73747;SDS011;62056;52.130;5.428;2022-12-10T03:27:08;42.42;;;17.73;;
73747;SDS011;62056;52.130;5.428;2022-12-10T03:29:40;34.93;;;15.00;;
73747;SDS011;62056;52.130;5.428;2022-12-10T03:32:16;51.38;;;17.50;;
73747;SDS011;62056;52.130;5.428;2022-12-10T03:34:46;42.88;;;15.30;;
73747;SDS011;62056;52.130;5.428;2022-12-10T03:37:16;59.75;;;22.67;;
73747;SDS011;62056;52.130;5.428;2022-12-10T03:39:43;44.03;;;18.35;;
73747;SDS011;62056;52.130;5.428;2022-12-10T03:42:10;53.07;;;24.87;;
73747;SDS011;62056;52.130;5.428;2022-12-10T03:44:38;57.90;;;25.05;;
73747;SDS011;62056;52.130;5.428;2022-12-10T03:47:07;29.48;;;13.57;;
73747;SDS011;62056;52.130;5.428;2022-12-10T03:49:55;51.25;;;16.92;;
73747;SDS011;62056;52.130;5.428;2022-12-10T03:52:34;46.97;;;17.02;;
73747;SDS011;62056;52.130;5.428;2022-12-10T03:55:01;42.23;;;15.30;;
73747;SDS011;62056;52.130;5.428;2022-12-10T03:57:29;36.53;;;14.48;;
73747;SDS011;62056;52.130;5.428;2022-12-10T03:59:56;34.22;;;12.23;;
73747;SDS011;62056;52.130;5.428;2022-12-10T04:02:24;57.92;;;19.58;;
73747;SDS011;62056;52.130;5.428;2022-12-10T04:04:50;40.97;;;17.63;;
73747;SDS011;62056;52.130;5.428;2022-12-10T04:07:17;43.10;;;16.13;;
73747;SDS011;62056;52.130;5.428;2022-12-10T04:09:43;35.15;;;14.23;;
73747;SDS011;62056;52.130;5.428;2022-12-10T04:12:10;35.97;;;12.25;;
73747;SDS011;62056;52.130;5.428;2022-12-10T04:14:38;36.70;;;14.68;;
73747;SDS011;62056;52.130;5.428;2022-12-10T04:17:24;41.53;;;14.63;;
73747;SDS011;62056;52.130;5.428;2022-12-10T04:19:50;45.37;;;14.57;;
73747;SDS011;62056;52.130;5.428;2022-12-10T04:22:17;43.50;;;14.13;;
73747;SDS011;62056;52.130;5.428;2022-12-10T04:25:02;56.88;;;18.90;;
73747;SDS011;62056;52.130;5.428;2022-12-10T04:27:58;60.47;;;16.38;;
73747;SDS011;62056;52.130;5.428;2022-12-10T04:30:24;41.63;;;14.57;;
73747;SDS011;62056;52.130;5.428;2022-12-10T04:32:52;46.87;;;16.30;;
73747;SDS011;62056;52.130;5.428;2022-12-10T04:35:27;46.83;;;17.00;;
73747;SDS011;62056;52.130;5.428;2022-12-10T04:38:14;66.35;;;16.50;;
73747;SDS011;62056;52.130;5.428;2022-12-10T04:40:41;26.55;;;9.82;;
73747;SDS011;62056;52.130;5.428;2022-12-10T04:43:09;26.55;;;10.23;;
73747;SDS011;62056;52.130;5.428;2022-12-10T04:45:40;44.77;;;15.90;;
73747;SDS011;62056;52.130;5.428;2022-12-10T04:48:07;58.92;;;17.10;;
73747;SDS011;62056;52.130;5.428;2022-12-10T04:50:33;43.25;;;15.88;;
73747;SDS011;62056;52.130;5.428;2022-12-10T04:53:00;36.58;;;14.60;;
73747;SDS011;62056;52.130;5.428;2022-12-10T04:55:28;52.22;;;18.27;;
73747;SDS011;62056;52.130;5.428;2022-12-10T04:58:26;54.70;;;18.60;;
73747;SDS011;62056;52.130;5.428;2022-12-10T05:01:01;43.22;;;15.30;;
73747;SDS011;62056;52.130;5.428;2022-12-10T05:04:17;32.85;;;12.73;;
73747;SDS011;62056;52.130;5.428;2022-12-10T05:06:44;43.83;;;15.85;;
73747;SDS011;62056;52.130;5.428;2022-12-10T05:09:13;74.20;;;22.45;;
73747;SDS011;62056;52.130;5.428;2022-12-10T05:11:43;39.50;;;14.37;;
73747;SDS011;62056;52.130;5.428;2022-12-10T05:14:14;56.20;;;19.13;;
73747;SDS011;62056;52.130;5.428;2022-12-10T05:17:02;54.00;;;19.05;;
73747;SDS011;62056;52.130;5.428;2022-12-10T05:19:51;50.25;;;19.75;;
73747;SDS011;62056;52.130;5.428;2022-12-10T05:22:21;43.13;;;18.33;;
73747;SDS011;62056;52.130;5.428;2022-12-10T05:25:07;42.67;;;15.47;;
73747;SDS011;62056;52.130;5.428;2022-12-10T05:27:33;44.72;;;17.05;;
73747;SDS011;62056;52.130;5.428;2022-12-10T05:30:06;53.55;;;17.95;;
73747;SDS011;62056;52.130;5.428;2022-12-10T05:33:02;42.70;;;16.85;;
73747;SDS011;62056;52.130;5.428;2022-12-10T05:35:28;30.25;;;12.00;;
73747;SDS011;62056;52.130;5.428;2022-12-10T05:38:01;65.27;;;24.23;;
73747;SDS011;62056;52.130;5.428;2022-12-10T05:40:34;61.85;;;21.73;;
73747;SDS011;62056;52.130;5.428;2022-12-10T05:43:35;63.45;;;19.27;;
73747;SDS011;62056;52.130;5.428;2022-12-10T05:46:22;41.03;;;17.13;;
73747;SDS011;62056;52.130;5.428;2022-12-10T05:49:12;44.38;;;17.63;;
73747;SDS011;62056;52.130;5.428;2022-12-10T05:51:50;39.87;;;15.90;;
73747;SDS011;62056;52.130;5.428;2022-12-10T05:54:21;46.63;;;18.73;;
73747;SDS011;62056;52.130;5.428;2022-12-10T05:56:48;65.32;;;20.33;;
73747;SDS011;62056;52.130;5.428;2022-12-10T05:59:15;62.85;;;19.20;;
73747;SDS011;62056;52.130;5.428;2022-12-10T06:02:03;68.70;;;21.10;;
73747;SDS011;62056;52.130;5.428;2022-12-10T06:04:29;43.27;;;16.23;;
73747;SDS011;62056;52.130;5.428;2022-12-10T06:06:56;62.00;;;20.75;;
73747;SDS011;62056;52.130;5.428;2022-12-10T06:10:01;56.72;;;20.17;;
73747;SDS011;62056;52.130;5.428;2022-12-10T06:12:30;43.78;;;17.85;;
73747;SDS011;62056;52.130;5.428;2022-12-10T06:15:21;32.72;;;15.48;;
73747;SDS011;62056;52.130;5.428;2022-12-10T06:17:49;58.03;;;17.70;;
73747;SDS011;62056;52.130;5.428;2022-12-10T06:20:17;45.20;;;15.70;;
73747;SDS011;62056;52.130;5.428;2022-12-10T06:22:55;37.35;;;14.43;;
73747;SDS011;62056;52.130;5.428;2022-12-10T06:25:24;40.03;;;15.00;;
73747;SDS011;62056;52.130;5.428;2022-12-10T06:28:29;41.30;;;14.88;;
73747;SDS011;62056;52.130;5.428;2022-12-10T06:30:59;41.10;;;14.93;;
73747;SDS011;62056;52.130;5.428;2022-12-10T06:33:49;38.22;;;12.73;;
73747;SDS011;62056;52.130;5.428;2022-12-10T06:36:16;33.80;;;13.13;;
73747;SDS011;62056;52.130;5.428;2022-12-10T06:38:53;36.55;;;14.32;;
73747;SDS011;62056;52.130;5.428;2022-12-10T06:41:22;31.85;;;14.20;;
73747;SDS011;62056;52.130;5.428;2022-12-10T06:43:49;36.07;;;13.97;;
73747;SDS011;62056;52.130;5.428;2022-12-10T06:46:17;34.60;;;13.38;;
73747;SDS011;62056;52.130;5.428;2022-12-10T06:48:46;45.50;;;13.27;;
73747;SDS011;62056;52.130;5.428;2022-12-10T06:51:13;29.48;;;11.13;;
73747;SDS011;62056;52.130;5.428;2022-12-10T06:53:41;54.20;;;15.60;;
73747;SDS011;62056;52.130;5.428;2022-12-10T06:56:11;45.37;;;13.77;;
73747;SDS011;62056;52.130;5.428;2022-12-10T06:58:41;37.40;;;13.57;;
73747;SDS011;62056;52.130;5.428;2022-12-10T07:01:14;27.08;;;11.82;;
73747;SDS011;62056;52.130;5.428;2022-12-10T07:03:42;31.83;;;13.60;;
73747;SDS011;62056;52.130;5.428;2022-12-10T07:06:17;40.55;;;13.75;;
73747;SDS011;62056;52.130;5.428;2022-12-10T07:08:44;24.10;;;9.77;;
73747;SDS011;62056;52.130;5.428;2022-12-10T07:11:19;31.35;;;13.35;;
73747;SDS011;62056;52.130;5.428;2022-12-10T07:13:49;34.03;;;13.88;;
73747;SDS011;62056;52.130;5.428;2022-12-10T07:16:21;44.72;;;16.50;;
73747;SDS011;62056;52.130;5.428;2022-12-10T07:19:11;38.47;;;13.82;;
73747;SDS011;62056;52.130;5.428;2022-12-10T07:21:39;33.90;;;15.07;;
73747;SDS011;62056;52.130;5.428;2022-12-10T07:24:10;41.88;;;15.93;;
73747;SDS011;62056;52.130;5.428;2022-12-10T07:26:42;41.45;;;14.80;;
73747;SDS011;62056;52.130;5.428;2022-12-10T07:29:12;38.60;;;17.08;;
73747;SDS011;62056;52.130;5.428;2022-12-10T07:31:42;34.22;;;13.75;;
73747;SDS011;62056;52.130;5.428;2022-12-10T07:34:12;35.97;;;14.77;;
73747;SDS011;62056;52.130;5.428;2022-12-10T07:36:39;34.00;;;12.55;;
73747;SDS011;62056;52.130;5.428;2022-12-10T07:39:44;35.00;;;15.30;;
73747;SDS011;62056;52.130;5.428;2022-12-10T07:42:11;38.75;;;14.40;;
73747;SDS011;62056;52.130;5.428;2022-12-10T07:44:39;34.97;;;14.57;;
73747;SDS011;62056;52.130;5.428;2022-12-10T07:47:40;31.13;;;12.33;;
73747;SDS011;62056;52.130;5.428;2022-12-10T07:50:07;43.17;;;14.90;;
73747;SDS011;62056;52.130;5.428;2022-12-10T07:52:40;32.97;;;12.63;;
73747;SDS011;62056;52.130;5.428;2022-12-10T07:55:06;33.97;;;13.85;;
73747;SDS011;62056;52.130;5.428;2022-12-10T07:57:33;40.15;;;16.38;;
73747;SDS011;62056;52.130;5.428;2022-12-10T08:00:01;32.23;;;10.93;;
73747;SDS011;62056;52.130;5.428;2022-12-10T08:02:38;33.58;;;13.10;;
73747;SDS011;62056;52.130;5.428;2022-12-10T08:05:05;28.30;;;11.18;;
73747;SDS011;62056;52.130;5.428;2022-12-10T08:07:33;41.40;;;15.48;;
73747;SDS011;62056;52.130;5.428;2022-12-10T08:10:02;34.17;;;13.82;;
73747;SDS011;62056;52.130;5.428;2022-12-10T08:13:06;41.10;;;14.80;;
73747;SDS011;62056;52.130;5.428;2022-12-10T08:15:32;28.40;;;11.13;;
73747;SDS011;62056;52.130;5.428;2022-12-10T08:17:59;47.88;;;14.43;;
73747;SDS011;62056;52.130;5.428;2022-12-10T08:20:26;33.35;;;12.27;;
73747;SDS011;62056;52.130;5.428;2022-12-10T08:22:54;37.25;;;13.45;;
73747;SDS011;62056;52.130;5.428;2022-12-10T08:25:21;48.80;;;17.23;;
73747;SDS011;62056;52.130;5.428;2022-12-10T08:28:04;40.90;;;14.85;;
73747;SDS011;62056;52.130;5.428;2022-12-10T08:30:34;37.97;;;14.73;;
73747;SDS011;62056;52.130;5.428;2022-12-10T08:33:02;35.85;;;12.93;;
73747;SDS011;62056;52.130;5.428;2022-12-10T08:35:35;25.42;;;10.25;;
73747;SDS011;62056;52.130;5.428;2022-12-10T08:38:03;37.33;;;13.43;;
73747;SDS011;62056;52.130;5.428;2022-12-10T08:40:33;35.35;;;13.88;;
73747;SDS011;62056;52.130;5.428;2022-12-10T08:45:59;38.47;;;15.35;;
73747;SDS011;62056;52.130;5.428;2022-12-10T08:48:33;31.67;;;11.82;;
73747;SDS011;62056;52.130;5.428;2022-12-10T08:51:02;35.93;;;14.73;;
73747;SDS011;62056;52.130;5.428;2022-12-10T08:53:38;27.80;;;11.85;;
73747;SDS011;62056;52.130;5.428;2022-12-10T08:56:06;40.45;;;14.35;;
73747;SDS011;62056;52.130;5.428;2022-12-10T08:58:33;41.38;;;15.85;;
73747;SDS011;62056;52.130;5.428;2022-12-10T09:01:09;44.80;;;14.52;;
73747;SDS011;62056;52.130;5.428;2022-12-10T09:03:41;29.73;;;11.33;;
73747;SDS011;62056;52.130;5.428;2022-12-10T09:06:11;28.67;;;10.75;;
73747;SDS011;62056;52.130;5.428;2022-12-10T09:08:40;34.92;;;13.55;;
73747;SDS011;62056;52.130;5.428;2022-12-10T09:11:12;39.10;;;13.35;;
73747;SDS011;62056;52.130;5.428;2022-12-10T09:14:05;29.85;;;10.82;;
73747;SDS011;62056;52.130;5.428;2022-12-10T09:16:35;28.23;;;10.70;;
73747;SDS011;62056;52.130;5.428;2022-12-10T09:19:06;32.63;;;14.90;;
73747;SDS011;62056;52.130;5.428;2022-12-10T09:21:52;29.00;;;11.38;;
73747;SDS011;62056;52.130;5.428;2022-12-10T09:24:26;30.75;;;12.77;;
73747;SDS011;62056;52.130;5.428;2022-12-10T09:26:53;30.08;;;11.23;;
73747;SDS011;62056;52.130;5.428;2022-12-10T09:29:21;31.13;;;10.93;;
73747;SDS011;62056;52.130;5.428;2022-12-10T09:31:50;43.17;;;14.13;;
73747;SDS011;62056;52.130;5.428;2022-12-10T09:34:32;42.10;;;14.73;;
73747;SDS011;62056;52.130;5.428;2022-12-10T09:36:59;34.00;;;12.55;;
73747;SDS011;62056;52.130;5.428;2022-12-10T09:39:25;35.00;;;13.88;;
73747;SDS011;62056;52.130;5.428;2022-12-10T09:42:13;19.10;;;8.10;;
73747;SDS011;62056;52.130;5.428;2022-12-10T09:47:58;32.92;;;12.68;;
73747;SDS011;62056;52.130;5.428;2022-12-10T09:50:36;27.35;;;9.55;;
73747;SDS011;62056;52.130;5.428;2022-12-10T09:53:21;33.17;;;12.73;;
73747;SDS011;62056;52.130;5.428;2022-12-10T09:56:03;37.80;;;13.57;;
73747;SDS011;62056;52.130;5.428;2022-12-10T09:58:40;35.58;;;13.57;;
73747;SDS011;62056;52.130;5.428;2022-12-10T10:01:09;40.10;;;15.52;;
73747;SDS011;62056;52.130;5.428;2022-12-10T10:03:48;38.40;;;12.80;;
73747;SDS011;62056;52.130;5.428;2022-12-10T10:06:41;37.70;;;13.05;;
73747;SDS011;62056;52.130;5.428;2022-12-10T10:09:09;32.30;;;12.23;;
73747;SDS011;62056;52.130;5.428;2022-12-10T10:11:40;36.47;;;12.55;;
73747;SDS011;62056;52.130;5.428;2022-12-10T10:14:12;24.95;;;9.85;;
73747;SDS011;62056;52.130;5.428;2022-12-10T10:19:19;34.80;;;12.07;;
73747;SDS011;62056;52.130;5.428;2022-12-10T10:21:50;42.27;;;14.77;;
73747;SDS011;62056;52.130;5.428;2022-12-10T10:24:19;32.63;;;12.73;;
73747;SDS011;62056;52.130;5.428;2022-12-10T10:26:50;42.88;;;15.20;;
73747;SDS011;62056;52.130;5.428;2022-12-10T10:29:19;40.58;;;15.10;;
73747;SDS011;62056;52.130;5.428;2022-12-10T10:31:57;41.20;;;14.07;;
73747;SDS011;62056;52.130;5.428;2022-12-10T10:34:38;22.60;;;9.67;;
73747;SDS011;62056;52.130;5.428;2022-12-10T10:37:06;33.80;;;12.60;;
73747;SDS011;62056;52.130;5.428;2022-12-10T10:39:38;28.83;;;10.02;;
73747;SDS011;62056;52.130;5.428;2022-12-10T10:42:08;30.25;;;10.50;;
73747;SDS011;62056;52.130;5.428;2022-12-10T10:44:37;27.35;;;10.02;;
73747;SDS011;62056;52.130;5.428;2022-12-10T10:47:26;40.63;;;13.10;;
73747;SDS011;62056;52.130;5.428;2022-12-10T10:50:00;33.95;;;12.50;;
73747;SDS011;62056;52.130;5.428;2022-12-10T10:52:29;32.50;;;12.77;;
73747;SDS011;62056;52.130;5.428;2022-12-10T10:55:01;27.13;;;10.43;;
73747;SDS011;62056;52.130;5.428;2022-12-10T11:02:46;23.10;;;8.23;;
73747;SDS011;62056;52.130;5.428;2022-12-10T11:07:43;38.70;;;14.50;;
73747;SDS011;62056;52.130;5.428;2022-12-10T11:10:17;34.25;;;13.10;;
73747;SDS011;62056;52.130;5.428;2022-12-10T11:12:58;26.23;;;11.33;;
73747;SDS011;62056;52.130;5.428;2022-12-10T11:15:34;42.10;;;14.88;;
73747;SDS011;62056;52.130;5.428;2022-12-10T11:18:09;35.28;;;13.07;;
73747;SDS011;62056;52.130;5.428;2022-12-10T11:20:59;25.10;;;10.52;;
73747;SDS011;62056;52.130;5.428;2022-12-10T11:23:27;22.90;;;8.73;;
73747;SDS011;62056;52.130;5.428;2022-12-10T11:28:37;37.33;;;12.27;;
73747;SDS011;62056;52.130;5.428;2022-12-10T11:31:17;24.33;;;8.95;;
73747;SDS011;62056;52.130;5.428;2022-12-10T11:45:18;27.15;;;9.52;;
73747;SDS011;62056;52.130;5.428;2022-12-10T11:47:54;19.60;;;8.13;;
73747;SDS011;62056;52.130;5.428;2022-12-10T11:50:35;34.10;;;11.52;;
73747;SDS011;62056;52.130;5.428;2022-12-10T11:56:09;41.75;;;12.80;;
73747;SDS011;62056;52.130;5.428;2022-12-10T12:04:37;30.70;;;11.77;;
73747;SDS011;62056;52.130;5.428;2022-12-10T12:10:28;38.13;;;14.18;;
73747;SDS011;62056;52.130;5.428;2022-12-10T12:13:28;34.17;;;11.63;;
73747;SDS011;62056;52.130;5.428;2022-12-10T12:16:10;33.35;;;12.43;;
73747;SDS011;62056;52.130;5.428;2022-12-10T12:18:45;34.30;;;13.30;;
73747;SDS011;62056;52.130;5.428;2022-12-10T12:21:17;30.07;;;11.27;;
73747;SDS011;62056;52.130;5.428;2022-12-10T12:28:55;22.27;;;9.90;;
73747;SDS011;62056;52.130;5.428;2022-12-10T12:31:34;28.90;;;11.90;;
73747;SDS011;62056;52.130;5.428;2022-12-10T12:36:42;26.30;;;10.10;;
73747;SDS011;62056;52.130;5.428;2022-12-10T12:39:17;30.38;;;13.25;;
73747;SDS011;62056;52.130;5.428;2022-12-10T12:42:05;35.05;;;13.63;;
73747;SDS011;62056;52.130;5.428;2022-12-10T12:44:36;34.28;;;13.50;;
73747;SDS011;62056;52.130;5.428;2022-12-10T12:49:56;33.40;;;12.27;;
73747;SDS011;62056;52.130;5.428;2022-12-10T12:55:01;29.77;;;12.23;;
73747;SDS011;62056;52.130;5.428;2022-12-10T13:00:27;33.80;;;12.97;;
73747;SDS011;62056;52.130;5.428;2022-12-10T13:03:17;25.08;;;9.55;;
73747;SDS011;62056;52.130;5.428;2022-12-10T13:05:55;24.38;;;8.65;;
73747;SDS011;62056;52.130;5.428;2022-12-10T13:08:52;33.03;;;12.95;;
73747;SDS011;62056;52.130;5.428;2022-12-10T13:11:34;31.52;;;12.50;;
73747;SDS011;62056;52.130;5.428;2022-12-10T13:24:21;31.40;;;12.93;;
73747;SDS011;62056;52.130;5.428;2022-12-10T13:32:24;39.50;;;13.98;;
73747;SDS011;62056;52.130;5.428;2022-12-10T13:46:26;24.58;;;10.60;;
73747;SDS011;62056;52.130;5.428;2022-12-10T13:48:58;27.83;;;10.85;;
73747;SDS011;62056;52.130;5.428;2022-12-10T13:54:24;20.13;;;8.50;;
73747;SDS011;62056;52.130;5.428;2022-12-10T14:00:16;22.58;;;9.23;;
73747;SDS011;62056;52.130;5.428;2022-12-10T14:08:06;17.83;;;7.97;;
73747;SDS011;62056;52.130;5.428;2022-12-10T14:10:42;29.88;;;10.73;;
73747;SDS011;62056;52.130;5.428;2022-12-10T14:13:10;21.27;;;9.38;;
73747;SDS011;62056;52.130;5.428;2022-12-10T14:15:39;22.02;;;9.23;;
73747;SDS011;62056;52.130;5.428;2022-12-10T14:18:11;22.58;;;9.63;;
73747;SDS011;62056;52.130;5.428;2022-12-10T14:20:42;32.13;;;13.33;;
73747;SDS011;62056;52.130;5.428;2022-12-10T14:23:26;15.85;;;7.40;;
73747;SDS011;62056;52.130;5.428;2022-12-10T14:26:11;22.05;;;9.55;;
73747;SDS011;62056;52.130;5.428;2022-12-10T14:28:57;24.88;;;10.15;;
73747;SDS011;62056;52.130;5.428;2022-12-10T14:31:32;22.90;;;8.70;;
73747;SDS011;62056;52.130;5.428;2022-12-10T14:34:08;39.63;;;12.77;;
73747;SDS011;62056;52.130;5.428;2022-12-10T14:36:45;37.90;;;14.20;;
73747;SDS011;62056;52.130;5.428;2022-12-10T14:39:14;21.98;;;9.05;;
73747;SDS011;62056;52.130;5.428;2022-12-10T14:41:45;37.22;;;13.48;;
73747;SDS011;62056;52.130;5.428;2022-12-10T14:44:15;26.05;;;10.80;;
73747;SDS011;62056;52.130;5.428;2022-12-10T14:46:43;24.73;;;10.23;;
73747;SDS011;62056;52.130;5.428;2022-12-10T14:49:15;23.33;;;9.07;;
73747;SDS011;62056;52.130;5.428;2022-12-10T14:51:47;35.63;;;12.77;;
73747;SDS011;62056;52.130;5.428;2022-12-10T14:54:23;30.35;;;12.68;;
73747;SDS011;62056;52.130;5.428;2022-12-10T14:56:51;37.85;;;11.93;;
73747;SDS011;62056;52.130;5.428;2022-12-10T14:59:21;34.27;;;12.57;;
73747;SDS011;62056;52.130;5.428;2022-12-10T15:01:56;30.23;;;11.82;;
73747;SDS011;62056;52.130;5.428;2022-12-10T15:04:31;36.47;;;13.80;;
73747;SDS011;62056;52.130;5.428;2022-12-10T15:07:09;40.70;;;13.63;;
73747;SDS011;62056;52.130;5.428;2022-12-10T15:09:47;35.42;;;13.75;;
73747;SDS011;62056;52.130;5.428;2022-12-10T15:12:33;31.07;;;10.13;;
73747;SDS011;62056;52.130;5.428;2022-12-10T15:15:26;29.40;;;10.48;;
73747;SDS011;62056;52.130;5.428;2022-12-10T15:18:03;30.45;;;11.10;;
73747;SDS011;62056;52.130;5.428;2022-12-10T15:20:44;39.58;;;13.98;;
73747;SDS011;62056;52.130;5.428;2022-12-10T15:25:52;40.30;;;14.37;;
73747;SDS011;62056;52.130;5.428;2022-12-10T15:28:25;42.88;;;14.68;;
73747;SDS011;62056;52.130;5.428;2022-12-10T15:30:58;44.33;;;14.23;;
73747;SDS011;62056;52.130;5.428;2022-12-10T15:33:38;29.98;;;9.88;;
73747;SDS011;62056;52.130;5.428;2022-12-10T15:36:11;31.70;;;11.95;;
73747;SDS011;62056;52.130;5.428;2022-12-10T15:38:44;40.23;;;12.30;;
73747;SDS011;62056;52.130;5.428;2022-12-10T15:49:29;41.08;;;13.65;;
73747;SDS011;62056;52.130;5.428;2022-12-10T15:51:57;32.00;;;11.43;;
73747;SDS011;62056;52.130;5.428;2022-12-10T15:54:29;35.20;;;13.45;;
73747;SDS011;62056;52.130;5.428;2022-12-10T15:57:00;41.47;;;12.93;;
73747;SDS011;62056;52.130;5.428;2022-12-10T15:59:32;42.65;;;13.20;;
73747;SDS011;62056;52.130;5.428;2022-12-10T16:01:59;42.20;;;14.85;;
73747;SDS011;62056;52.130;5.428;2022-12-10T16:04:28;45.70;;;14.47;;
73747;SDS011;62056;52.130;5.428;2022-12-10T16:06:56;33.88;;;12.10;;
73747;SDS011;62056;52.130;5.428;2022-12-10T16:09:23;45.72;;;13.82;;
73747;SDS011;62056;52.130;5.428;2022-12-10T16:11:49;44.05;;;13.73;;
73747;SDS011;62056;52.130;5.428;2022-12-10T16:14:16;46.13;;;15.98;;
73747;SDS011;62056;52.130;5.428;2022-12-10T16:16:43;37.00;;;12.13;;
73747;SDS011;62056;52.130;5.428;2022-12-10T16:19:10;34.08;;;11.73;;
73747;SDS011;62056;52.130;5.428;2022-12-10T16:21:39;35.60;;;13.48;;
73747;SDS011;62056;52.130;5.428;2022-12-10T16:24:07;42.90;;;15.45;;
73747;SDS011;62056;52.130;5.428;2022-12-10T16:26:33;42.60;;;14.10;;
73747;SDS011;62056;52.130;5.428;2022-12-10T16:29:00;43.03;;;14.10;;
73747;SDS011;62056;52.130;5.428;2022-12-10T16:31:27;37.63;;;13.13;;
73747;SDS011;62056;52.130;5.428;2022-12-10T16:33:53;47.42;;;15.10;;
73747;SDS011;62056;52.130;5.428;2022-12-10T16:36:22;42.00;;;13.32;;
73747;SDS011;62056;52.130;5.428;2022-12-10T16:38:49;36.83;;;12.50;;
73747;SDS011;62056;52.130;5.428;2022-12-10T16:41:17;30.40;;;11.37;;
73747;SDS011;62056;52.130;5.428;2022-12-10T16:43:47;27.95;;;10.52;;
73747;SDS011;62056;52.130;5.428;2022-12-10T16:46:14;30.67;;;8.90;;
73747;SDS011;62056;52.130;5.428;2022-12-10T16:48:41;30.52;;;10.48;;
73747;SDS011;62056;52.130;5.428;2022-12-10T16:51:13;40.03;;;13.43;;
73747;SDS011;62056;52.130;5.428;2022-12-10T16:53:44;42.53;;;11.83;;
73747;SDS011;62056;52.130;5.428;2022-12-10T16:56:14;27.02;;;11.27;;
73747;SDS011;62056;52.130;5.428;2022-12-10T16:58:42;40.05;;;14.10;;
73747;SDS011;62056;52.130;5.428;2022-12-10T17:01:15;29.80;;;9.38;;
73747;SDS011;62056;52.130;5.428;2022-12-10T17:03:47;33.35;;;11.32;;
73747;SDS011;62056;52.130;5.428;2022-12-10T17:06:15;21.80;;;8.57;;
73747;SDS011;62056;52.130;5.428;2022-12-10T17:08:42;28.70;;;10.90;;
73747;SDS011;62056;52.130;5.428;2022-12-10T17:11:13;33.95;;;11.88;;
73747;SDS011;62056;52.130;5.428;2022-12-10T17:13:58;28.67;;;10.20;;
73747;SDS011;62056;52.130;5.428;2022-12-10T17:16:25;28.20;;;9.20;;
73747;SDS011;62056;52.130;5.428;2022-12-10T17:18:52;34.90;;;12.27;;
73747;SDS011;62056;52.130;5.428;2022-12-10T17:21:19;28.42;;;9.18;;